<?xml version="1.0" encoding="UTF-8" standalone="no" ?>
<gpx xmlns="http://www.topografix.com/GPX/1/1" xmlns:xsi="http://www.w3.org/2001/XMLSchema-instance" xsi:schemaLocation="http://www.topografix.com/GPX/1/1 http://www.topografix.com/GPX/1/1/gpx.xsd" version="1.1" creator="VisuGPX - https://www.visugpx.com">
  <metadata>
    <name>Cap Lardier</name>
    <desc><![CDATA[File with points/tracks from Locus Pro/3.7.1]]></desc>
  </metadata>
  <trk>
    <name><![CDATA[F84 LT GO cap Lardier]]></name>
    <desc><![CDATA[3h:51m:38s | 9.1 km]]></desc>
    <trkseg>
      <trkpt lat="43.18416" lon="6.59797">
        <ele>6.1</ele>
        <time>2015-03-13T13:45:49Z</time>
      </trkpt>
      <trkpt lat="43.18408" lon="6.59801">
        <ele>6.12</ele>
        <time>2015-03-13T13:45:59Z</time>
      </trkpt>
      <trkpt lat="43.18401" lon="6.59871">
        <ele>7.6</ele>
        <time>2015-03-13T13:47:39Z</time>
      </trkpt>
      <trkpt lat="43.18411" lon="6.59883">
        <ele>7.64</ele>
        <time>2015-03-13T13:48:01Z</time>
      </trkpt>
      <trkpt lat="43.18414" lon="6.59893">
        <ele>7.9</ele>
        <time>2015-03-13T13:48:11Z</time>
      </trkpt>
      <trkpt lat="43.18418" lon="6.59907">
        <ele>7.23</ele>
        <time>2015-03-13T13:48:25Z</time>
      </trkpt>
      <trkpt lat="43.18412" lon="6.5992">
        <ele>6.53</ele>
        <time>2015-03-13T13:48:35Z</time>
      </trkpt>
      <trkpt lat="43.18409" lon="6.59935">
        <ele>5.51</ele>
        <time>2015-03-13T13:48:45Z</time>
      </trkpt>
      <trkpt lat="43.18405" lon="6.59947">
        <ele>4.31</ele>
        <time>2015-03-13T13:48:57Z</time>
      </trkpt>
      <trkpt lat="43.18402" lon="6.59962">
        <ele>3.41</ele>
        <time>2015-03-13T13:49:10Z</time>
      </trkpt>
      <trkpt lat="43.18398" lon="6.59969">
        <ele>3.28</ele>
        <time>2015-03-13T13:49:20Z</time>
      </trkpt>
      <trkpt lat="43.18398" lon="6.59977">
        <ele>2.81</ele>
        <time>2015-03-13T13:49:30Z</time>
      </trkpt>
      <trkpt lat="43.18388" lon="6.59997">
        <ele>2.03</ele>
        <time>2015-03-13T13:49:47Z</time>
      </trkpt>
      <trkpt lat="43.18381" lon="6.60033">
        <ele>1.32</ele>
        <time>2015-03-13T13:50:15Z</time>
      </trkpt>
      <trkpt lat="43.18372" lon="6.60054">
        <ele>1.9</ele>
        <time>2015-03-13T13:50:38Z</time>
      </trkpt>
      <trkpt lat="43.18365" lon="6.60063">
        <ele>1.72</ele>
        <time>2015-03-13T13:51:24Z</time>
      </trkpt>
      <trkpt lat="43.18354" lon="6.60061">
        <ele>1.5</ele>
        <time>2015-03-13T13:51:36Z</time>
      </trkpt>
      <trkpt lat="43.18334" lon="6.60068">
        <ele>1.82</ele>
        <time>2015-03-13T13:51:56Z</time>
      </trkpt>
      <trkpt lat="43.18322" lon="6.60072">
        <ele>1.43</ele>
        <time>2015-03-13T13:52:09Z</time>
      </trkpt>
      <trkpt lat="43.18318" lon="6.60066">
        <ele>-0.05</ele>
        <time>2015-03-13T13:57:11Z</time>
      </trkpt>
      <trkpt lat="43.18309" lon="6.60065">
        <ele>0.37</ele>
        <time>2015-03-13T13:57:22Z</time>
      </trkpt>
      <trkpt lat="43.18298" lon="6.60075">
        <ele>0.67</ele>
        <time>2015-03-13T13:57:36Z</time>
      </trkpt>
      <trkpt lat="43.1829" lon="6.60089">
        <ele>2.04</ele>
        <time>2015-03-13T13:57:47Z</time>
      </trkpt>
      <trkpt lat="43.18281" lon="6.60101">
        <ele>4.54</ele>
        <time>2015-03-13T13:58:04Z</time>
      </trkpt>
      <trkpt lat="43.18262" lon="6.60135">
        <ele>11.13</ele>
        <time>2015-03-13T13:58:35Z</time>
      </trkpt>
      <trkpt lat="43.18258" lon="6.60148">
        <ele>12.78</ele>
        <time>2015-03-13T13:58:45Z</time>
      </trkpt>
      <trkpt lat="43.1825" lon="6.6016">
        <ele>13.96</ele>
        <time>2015-03-13T13:58:57Z</time>
      </trkpt>
      <trkpt lat="43.18238" lon="6.60177">
        <ele>12.02</ele>
        <time>2015-03-13T13:59:58Z</time>
      </trkpt>
      <trkpt lat="43.18228" lon="6.60191">
        <ele>11.5</ele>
        <time>2015-03-13T14:00:10Z</time>
      </trkpt>
      <trkpt lat="43.18218" lon="6.60205">
        <ele>10.91</ele>
        <time>2015-03-13T14:00:23Z</time>
      </trkpt>
      <trkpt lat="43.18191" lon="6.60225">
        <ele>8.25</ele>
        <time>2015-03-13T14:01:21Z</time>
      </trkpt>
      <trkpt lat="43.18175" lon="6.60246">
        <ele>7.6</ele>
        <time>2015-03-13T14:01:57Z</time>
      </trkpt>
      <trkpt lat="43.18163" lon="6.60246">
        <ele>7.4</ele>
        <time>2015-03-13T14:02:14Z</time>
      </trkpt>
      <trkpt lat="43.18128" lon="6.60257">
        <ele>5.73</ele>
        <time>2015-03-13T14:04:26Z</time>
      </trkpt>
      <trkpt lat="43.1809" lon="6.60273">
        <ele>5.56</ele>
        <time>2015-03-13T14:05:19Z</time>
      </trkpt>
      <trkpt lat="43.18061" lon="6.60293">
        <ele>4.5</ele>
        <time>2015-03-13T14:06:15Z</time>
      </trkpt>
      <trkpt lat="43.18053" lon="6.60305">
        <ele>3.63</ele>
        <time>2015-03-13T14:06:35Z</time>
      </trkpt>
      <trkpt lat="43.18044" lon="6.60311">
        <ele>3.4</ele>
        <time>2015-03-13T14:06:48Z</time>
      </trkpt>
      <trkpt lat="43.18037" lon="6.60311">
        <ele>3.7</ele>
        <time>2015-03-13T14:07:46Z</time>
      </trkpt>
      <trkpt lat="43.18026" lon="6.60305">
        <ele>3.8</ele>
        <time>2015-03-13T14:07:59Z</time>
      </trkpt>
      <trkpt lat="43.1801" lon="6.60296">
        <ele>3.5</ele>
        <time>2015-03-13T14:08:36Z</time>
      </trkpt>
      <trkpt lat="43.18004" lon="6.60288">
        <ele>3.31</ele>
        <time>2015-03-13T14:09:30Z</time>
      </trkpt>
      <trkpt lat="43.1799" lon="6.60283">
        <ele>3.77</ele>
        <time>2015-03-13T14:09:48Z</time>
      </trkpt>
      <trkpt lat="43.17941" lon="6.60288">
        <ele>2.98</ele>
        <time>2015-03-13T14:10:48Z</time>
      </trkpt>
      <trkpt lat="43.17918" lon="6.60301">
        <ele>3.87</ele>
        <time>2015-03-13T14:11:10Z</time>
      </trkpt>
      <trkpt lat="43.17866" lon="6.6034">
        <ele>5.6</ele>
        <time>2015-03-13T14:13:10Z</time>
      </trkpt>
      <trkpt lat="43.17864" lon="6.60346">
        <ele>6.19</ele>
        <time>2015-03-13T14:13:25Z</time>
      </trkpt>
      <trkpt lat="43.17857" lon="6.60352">
        <ele>7.49</ele>
        <time>2015-03-13T14:13:35Z</time>
      </trkpt>
      <trkpt lat="43.17849" lon="6.6037">
        <ele>8</ele>
        <time>2015-03-13T14:13:59Z</time>
      </trkpt>
      <trkpt lat="43.17845" lon="6.60375">
        <ele>8</ele>
        <time>2015-03-13T14:14:11Z</time>
      </trkpt>
      <trkpt lat="43.17836" lon="6.60379">
        <ele>8.27</ele>
        <time>2015-03-13T14:14:23Z</time>
      </trkpt>
      <trkpt lat="43.1775" lon="6.60417">
        <ele>9.5</ele>
        <time>2015-03-13T14:17:22Z</time>
      </trkpt>
      <trkpt lat="43.17743" lon="6.60426">
        <ele>9.6</ele>
        <time>2015-03-13T14:17:32Z</time>
      </trkpt>
      <trkpt lat="43.17733" lon="6.60428">
        <ele>9.43</ele>
        <time>2015-03-13T14:17:42Z</time>
      </trkpt>
      <trkpt lat="43.17717" lon="6.60412">
        <ele>8.91</ele>
        <time>2015-03-13T14:18:08Z</time>
      </trkpt>
      <trkpt lat="43.17698" lon="6.60408">
        <ele>9.02</ele>
        <time>2015-03-13T14:18:36Z</time>
      </trkpt>
      <trkpt lat="43.17691" lon="6.60416">
        <ele>9.19</ele>
        <time>2015-03-13T14:19:06Z</time>
      </trkpt>
      <trkpt lat="43.17684" lon="6.60433">
        <ele>9.1</ele>
        <time>2015-03-13T14:19:19Z</time>
      </trkpt>
      <trkpt lat="43.17677" lon="6.60445">
        <ele>8.53</ele>
        <time>2015-03-13T14:19:32Z</time>
      </trkpt>
      <trkpt lat="43.1767" lon="6.60445">
        <ele>8.01</ele>
        <time>2015-03-13T14:19:42Z</time>
      </trkpt>
      <trkpt lat="43.17648" lon="6.60455">
        <ele>6.71</ele>
        <time>2015-03-13T14:20:38Z</time>
      </trkpt>
      <trkpt lat="43.17621" lon="6.6045">
        <ele>6.43</ele>
        <time>2015-03-13T14:21:47Z</time>
      </trkpt>
      <trkpt lat="43.17607" lon="6.60454">
        <ele>6.21</ele>
        <time>2015-03-13T14:22:11Z</time>
      </trkpt>
      <trkpt lat="43.17554" lon="6.60472">
        <ele>2.63</ele>
        <time>2015-03-13T14:24:35Z</time>
      </trkpt>
      <trkpt lat="43.1754" lon="6.60468">
        <ele>1.29</ele>
        <time>2015-03-13T14:25:24Z</time>
      </trkpt>
      <trkpt lat="43.17538" lon="6.60463">
        <ele>0.63</ele>
        <time>2015-03-13T14:25:41Z</time>
      </trkpt>
      <trkpt lat="43.17535" lon="6.6045">
        <ele>-0.27</ele>
        <time>2015-03-13T14:26:25Z</time>
      </trkpt>
      <trkpt lat="43.1753" lon="6.60442">
        <ele>-0.5</ele>
        <time>2015-03-13T14:26:40Z</time>
      </trkpt>
      <trkpt lat="43.17523" lon="6.60434">
        <ele>-0.58</ele>
        <time>2015-03-13T14:26:58Z</time>
      </trkpt>
      <trkpt lat="43.17513" lon="6.60421">
        <ele>1.13</ele>
        <time>2015-03-13T14:28:13Z</time>
      </trkpt>
      <trkpt lat="43.17512" lon="6.60411">
        <ele>0.83</ele>
        <time>2015-03-13T14:28:24Z</time>
      </trkpt>
      <trkpt lat="43.17504" lon="6.60397">
        <ele>0.7</ele>
        <time>2015-03-13T14:28:42Z</time>
      </trkpt>
      <trkpt lat="43.17499" lon="6.60392">
        <ele>0.65</ele>
        <time>2015-03-13T14:29:58Z</time>
      </trkpt>
      <trkpt lat="43.17497" lon="6.60383">
        <ele>0.14</ele>
        <time>2015-03-13T14:30:40Z</time>
      </trkpt>
      <trkpt lat="43.17494" lon="6.60373">
        <ele>0.4</ele>
        <time>2015-03-13T14:30:52Z</time>
      </trkpt>
      <trkpt lat="43.17492" lon="6.60361">
        <ele>0.7</ele>
        <time>2015-03-13T14:31:03Z</time>
      </trkpt>
      <trkpt lat="43.17487" lon="6.60344">
        <ele>1.07</ele>
        <time>2015-03-13T14:31:18Z</time>
      </trkpt>
      <trkpt lat="43.17473" lon="6.60316">
        <ele>1.39</ele>
        <time>2015-03-13T14:31:55Z</time>
      </trkpt>
      <trkpt lat="43.17469" lon="6.60312">
        <ele>1.6</ele>
        <time>2015-03-13T14:32:16Z</time>
      </trkpt>
      <trkpt lat="43.17462" lon="6.60309">
        <ele>1.43</ele>
        <time>2015-03-13T14:32:26Z</time>
      </trkpt>
      <trkpt lat="43.17432" lon="6.60317">
        <ele>1.22</ele>
        <time>2015-03-13T14:33:33Z</time>
      </trkpt>
      <trkpt lat="43.17417" lon="6.6033">
        <ele>3.68</ele>
        <time>2015-03-13T14:34:24Z</time>
      </trkpt>
      <trkpt lat="43.17405" lon="6.60354">
        <ele>5.02</ele>
        <time>2015-03-13T14:35:29Z</time>
      </trkpt>
      <trkpt lat="43.17404" lon="6.60365">
        <ele>5.18</ele>
        <time>2015-03-13T14:35:39Z</time>
      </trkpt>
      <trkpt lat="43.17403" lon="6.60376">
        <ele>5.68</ele>
        <time>2015-03-13T14:36:20Z</time>
      </trkpt>
      <trkpt lat="43.17401" lon="6.60382">
        <ele>5.82</ele>
        <time>2015-03-13T14:36:30Z</time>
      </trkpt>
      <trkpt lat="43.17399" lon="6.60399">
        <ele>6</ele>
        <time>2015-03-13T14:37:04Z</time>
      </trkpt>
      <trkpt lat="43.17396" lon="6.6041">
        <ele>6</ele>
        <time>2015-03-13T14:37:15Z</time>
      </trkpt>
      <trkpt lat="43.17392" lon="6.60419">
        <ele>6.29</ele>
        <time>2015-03-13T14:37:25Z</time>
      </trkpt>
      <trkpt lat="43.17389" lon="6.60426">
        <ele>6.97</ele>
        <time>2015-03-13T14:37:36Z</time>
      </trkpt>
      <trkpt lat="43.17388" lon="6.60455">
        <ele>7.4</ele>
        <time>2015-03-13T14:38:56Z</time>
      </trkpt>
      <trkpt lat="43.17382" lon="6.60483">
        <ele>6.83</ele>
        <time>2015-03-13T14:39:18Z</time>
      </trkpt>
      <trkpt lat="43.17388" lon="6.60497">
        <ele>6.13</ele>
        <time>2015-03-13T14:39:30Z</time>
      </trkpt>
      <trkpt lat="43.17389" lon="6.60508">
        <ele>5.5</ele>
        <time>2015-03-13T14:39:42Z</time>
      </trkpt>
      <trkpt lat="43.17385" lon="6.6052">
        <ele>4.83</ele>
        <time>2015-03-13T14:39:56Z</time>
      </trkpt>
      <trkpt lat="43.17381" lon="6.60534">
        <ele>4.2</ele>
        <time>2015-03-13T14:40:09Z</time>
      </trkpt>
      <trkpt lat="43.17379" lon="6.6056">
        <ele>3.13</ele>
        <time>2015-03-13T14:40:41Z</time>
      </trkpt>
      <trkpt lat="43.17374" lon="6.60584">
        <ele>2.2</ele>
        <time>2015-03-13T14:41:09Z</time>
      </trkpt>
      <trkpt lat="43.17372" lon="6.60597">
        <ele>1.7</ele>
        <time>2015-03-13T14:41:22Z</time>
      </trkpt>
      <trkpt lat="43.1737" lon="6.60604">
        <ele>2</ele>
        <time>2015-03-13T14:42:40Z</time>
      </trkpt>
      <trkpt lat="43.17374" lon="6.60605">
        <ele>2.03</ele>
        <time>2015-03-13T14:42:52Z</time>
      </trkpt>
      <trkpt lat="43.17367" lon="6.60657">
        <ele>2.33</ele>
        <time>2015-03-13T14:44:14Z</time>
      </trkpt>
      <trkpt lat="43.17364" lon="6.60665">
        <ele>2.23</ele>
        <time>2015-03-13T14:44:36Z</time>
      </trkpt>
      <trkpt lat="43.17358" lon="6.60674">
        <ele>1.8</ele>
        <time>2015-03-13T14:44:47Z</time>
      </trkpt>
      <trkpt lat="43.1736" lon="6.60687">
        <ele>1.8</ele>
        <time>2015-03-13T14:44:58Z</time>
      </trkpt>
      <trkpt lat="43.1736" lon="6.607">
        <ele>0.58</ele>
        <time>2015-03-13T14:46:17Z</time>
      </trkpt>
      <trkpt lat="43.17357" lon="6.60711">
        <ele>0.69</ele>
        <time>2015-03-13T14:49:03Z</time>
      </trkpt>
      <trkpt lat="43.17352" lon="6.60726">
        <ele>-0.93</ele>
        <time>2015-03-13T14:51:49Z</time>
      </trkpt>
      <trkpt lat="43.17346" lon="6.60743">
        <ele>-0.8</ele>
        <time>2015-03-13T14:51:59Z</time>
      </trkpt>
      <trkpt lat="43.17339" lon="6.6076">
        <ele>6</ele>
        <time>2015-03-13T14:52:13Z</time>
      </trkpt>
      <trkpt lat="43.17333" lon="6.60768">
        <ele>0.49</ele>
        <time>2015-03-13T14:52:25Z</time>
      </trkpt>
      <trkpt lat="43.1733" lon="6.60788">
        <ele>2.07</ele>
        <time>2015-03-13T14:52:41Z</time>
      </trkpt>
      <trkpt lat="43.17329" lon="6.60799">
        <ele>2.8</ele>
        <time>2015-03-13T14:52:53Z</time>
      </trkpt>
      <trkpt lat="43.17321" lon="6.60819">
        <ele>3.67</ele>
        <time>2015-03-13T14:53:07Z</time>
      </trkpt>
      <trkpt lat="43.17316" lon="6.60827">
        <ele>5.17</ele>
        <time>2015-03-13T14:53:17Z</time>
      </trkpt>
      <trkpt lat="43.1731" lon="6.60825">
        <ele>5.11</ele>
        <time>2015-03-13T14:53:28Z</time>
      </trkpt>
      <trkpt lat="43.173" lon="6.60837">
        <ele>5.02</ele>
        <time>2015-03-13T14:53:39Z</time>
      </trkpt>
      <trkpt lat="43.17297" lon="6.60842">
        <ele>0.33</ele>
        <time>2015-03-13T14:56:56Z</time>
      </trkpt>
      <trkpt lat="43.17291" lon="6.60842">
        <ele>0.11</ele>
        <time>2015-03-13T14:57:06Z</time>
      </trkpt>
      <trkpt lat="43.17282" lon="6.60843">
        <ele>-0.2</ele>
        <time>2015-03-13T14:57:19Z</time>
      </trkpt>
      <trkpt lat="43.17273" lon="6.60839">
        <ele>-0.69</ele>
        <time>2015-03-13T14:57:29Z</time>
      </trkpt>
      <trkpt lat="43.17266" lon="6.60837">
        <ele>-1.07</ele>
        <time>2015-03-13T14:57:39Z</time>
      </trkpt>
      <trkpt lat="43.17261" lon="6.6084">
        <ele>-1.39</ele>
        <time>2015-03-13T14:57:49Z</time>
      </trkpt>
      <trkpt lat="43.17254" lon="6.60848">
        <ele>-1.6</ele>
        <time>2015-03-13T14:57:59Z</time>
      </trkpt>
      <trkpt lat="43.17244" lon="6.60851">
        <ele>-1.79</ele>
        <time>2015-03-13T14:58:09Z</time>
      </trkpt>
      <trkpt lat="43.17235" lon="6.60855">
        <ele>-2.47</ele>
        <time>2015-03-13T14:58:19Z</time>
      </trkpt>
      <trkpt lat="43.17231" lon="6.60861">
        <ele>-2.69</ele>
        <time>2015-03-13T14:58:29Z</time>
      </trkpt>
      <trkpt lat="43.17215" lon="6.6088">
        <ele>-3.7</ele>
        <time>2015-03-13T15:00:06Z</time>
      </trkpt>
      <trkpt lat="43.17206" lon="6.60878">
        <ele>-3.72</ele>
        <time>2015-03-13T15:00:18Z</time>
      </trkpt>
      <trkpt lat="43.17197" lon="6.60878">
        <ele>-3.51</ele>
        <time>2015-03-13T15:00:29Z</time>
      </trkpt>
      <trkpt lat="43.17184" lon="6.60883">
        <ele>-3.69</ele>
        <time>2015-03-13T15:00:48Z</time>
      </trkpt>
      <trkpt lat="43.17173" lon="6.60882">
        <ele>-3.6</ele>
        <time>2015-03-13T15:01:03Z</time>
      </trkpt>
      <trkpt lat="43.17082" lon="6.60872">
        <ele>3.97</ele>
        <time>2015-03-13T15:04:55Z</time>
      </trkpt>
      <trkpt lat="43.17076" lon="6.60878">
        <ele>5.53</ele>
        <time>2015-03-13T15:05:11Z</time>
      </trkpt>
      <trkpt lat="43.17069" lon="6.60892">
        <ele>12.74</ele>
        <time>2015-03-13T15:06:07Z</time>
      </trkpt>
      <trkpt lat="43.17065" lon="6.60901">
        <ele>14.14</ele>
        <time>2015-03-13T15:06:17Z</time>
      </trkpt>
      <trkpt lat="43.17062" lon="6.60909">
        <ele>15.19</ele>
        <time>2015-03-13T15:06:28Z</time>
      </trkpt>
      <trkpt lat="43.17051" lon="6.60916">
        <ele>16.59</ele>
        <time>2015-03-13T15:06:46Z</time>
      </trkpt>
      <trkpt lat="43.1704" lon="6.60922">
        <ele>17.09</ele>
        <time>2015-03-13T15:07:01Z</time>
      </trkpt>
      <trkpt lat="43.17036" lon="6.60919">
        <ele>27.92</ele>
        <time>2015-03-13T15:08:55Z</time>
      </trkpt>
      <trkpt lat="43.17029" lon="6.60943">
        <ele>32.1</ele>
        <time>2015-03-13T15:09:25Z</time>
      </trkpt>
      <trkpt lat="43.16989" lon="6.60981">
        <ele>35.2</ele>
        <time>2015-03-13T15:11:05Z</time>
      </trkpt>
      <trkpt lat="43.16974" lon="6.60992">
        <ele>35.99</ele>
        <time>2015-03-13T15:11:30Z</time>
      </trkpt>
      <trkpt lat="43.16966" lon="6.61">
        <ele>36.47</ele>
        <time>2015-03-13T15:11:40Z</time>
      </trkpt>
      <trkpt lat="43.16953" lon="6.6102">
        <ele>38.29</ele>
        <time>2015-03-13T15:12:16Z</time>
      </trkpt>
      <trkpt lat="43.16941" lon="6.61048">
        <ele>43.3</ele>
        <time>2015-03-13T15:14:49Z</time>
      </trkpt>
      <trkpt lat="43.16934" lon="6.61068">
        <ele>47.82</ele>
        <time>2015-03-13T15:15:49Z</time>
      </trkpt>
      <trkpt lat="43.16932" lon="6.61119">
        <ele>65.17</ele>
        <time>2015-03-13T15:18:07Z</time>
      </trkpt>
      <trkpt lat="43.16929" lon="6.61127">
        <ele>65.89</ele>
        <time>2015-03-13T15:18:17Z</time>
      </trkpt>
      <trkpt lat="43.1693" lon="6.61135">
        <ele>66.57</ele>
        <time>2015-03-13T15:18:28Z</time>
      </trkpt>
      <trkpt lat="43.16931" lon="6.61143">
        <ele>67.64</ele>
        <time>2015-03-13T15:18:38Z</time>
      </trkpt>
      <trkpt lat="43.16935" lon="6.61152">
        <ele>69.14</ele>
        <time>2015-03-13T15:18:48Z</time>
      </trkpt>
      <trkpt lat="43.16941" lon="6.61163">
        <ele>70.64</ele>
        <time>2015-03-13T15:19:02Z</time>
      </trkpt>
      <trkpt lat="43.16946" lon="6.61173">
        <ele>94</ele>
        <time>2015-03-13T15:26:17Z</time>
      </trkpt>
      <trkpt lat="43.16935" lon="6.6119">
        <ele>93.8</ele>
        <time>2015-03-13T15:27:04Z</time>
      </trkpt>
      <trkpt lat="43.16925" lon="6.61206">
        <ele>93.1</ele>
        <time>2015-03-13T15:27:22Z</time>
      </trkpt>
      <trkpt lat="43.16918" lon="6.61215">
        <ele>93.18</ele>
        <time>2015-03-13T15:27:32Z</time>
      </trkpt>
      <trkpt lat="43.16912" lon="6.61232">
        <ele>93</ele>
        <time>2015-03-13T15:27:44Z</time>
      </trkpt>
      <trkpt lat="43.1691" lon="6.61244">
        <ele>93.08</ele>
        <time>2015-03-13T15:27:54Z</time>
      </trkpt>
      <trkpt lat="43.16908" lon="6.61259">
        <ele>93.47</ele>
        <time>2015-03-13T15:28:06Z</time>
      </trkpt>
      <trkpt lat="43.16905" lon="6.61271">
        <ele>93.57</ele>
        <time>2015-03-13T15:28:17Z</time>
      </trkpt>
      <trkpt lat="43.16899" lon="6.61277">
        <ele>93.59</ele>
        <time>2015-03-13T15:28:27Z</time>
      </trkpt>
      <trkpt lat="43.16892" lon="6.61282">
        <ele>93.8</ele>
        <time>2015-03-13T15:28:39Z</time>
      </trkpt>
      <trkpt lat="43.16884" lon="6.61285">
        <ele>93.31</ele>
        <time>2015-03-13T15:28:51Z</time>
      </trkpt>
      <trkpt lat="43.16825" lon="6.61349">
        <ele>92.7</ele>
        <time>2015-03-13T15:30:23Z</time>
      </trkpt>
      <trkpt lat="43.1681" lon="6.61367">
        <ele>92.6</ele>
        <time>2015-03-13T15:30:44Z</time>
      </trkpt>
      <trkpt lat="43.16789" lon="6.61393">
        <ele>92.2</ele>
        <time>2015-03-13T15:31:13Z</time>
      </trkpt>
      <trkpt lat="43.16753" lon="6.61491">
        <ele>91.3</ele>
        <time>2015-03-13T15:32:56Z</time>
      </trkpt>
      <trkpt lat="43.16744" lon="6.61561">
        <ele>90.9</ele>
        <time>2015-03-13T15:34:09Z</time>
      </trkpt>
      <trkpt lat="43.16736" lon="6.61577">
        <ele>91.27</ele>
        <time>2015-03-13T15:34:27Z</time>
      </trkpt>
      <trkpt lat="43.16731" lon="6.61601">
        <ele>91.7</ele>
        <time>2015-03-13T15:34:47Z</time>
      </trkpt>
      <trkpt lat="43.16713" lon="6.61613">
        <ele>92.07</ele>
        <time>2015-03-13T15:35:08Z</time>
      </trkpt>
      <trkpt lat="43.16705" lon="6.61617">
        <ele>92.87</ele>
        <time>2015-03-13T15:35:18Z</time>
      </trkpt>
      <trkpt lat="43.16697" lon="6.61625">
        <ele>92.48</ele>
        <time>2015-03-13T15:35:35Z</time>
      </trkpt>
      <trkpt lat="43.16671" lon="6.61647">
        <ele>91.23</ele>
        <time>2015-03-13T15:36:16Z</time>
      </trkpt>
      <trkpt lat="43.16659" lon="6.61652">
        <ele>91</ele>
        <time>2015-03-13T15:36:26Z</time>
      </trkpt>
      <trkpt lat="43.16647" lon="6.6166">
        <ele>90.6</ele>
        <time>2015-03-13T15:36:37Z</time>
      </trkpt>
      <trkpt lat="43.16641" lon="6.61664">
        <ele>90.4</ele>
        <time>2015-03-13T15:36:47Z</time>
      </trkpt>
      <trkpt lat="43.16631" lon="6.61686">
        <ele>90.01</ele>
        <time>2015-03-13T15:37:12Z</time>
      </trkpt>
      <trkpt lat="43.16581" lon="6.61747">
        <ele>88.3</ele>
        <time>2015-03-13T15:38:58Z</time>
      </trkpt>
      <trkpt lat="43.16577" lon="6.61755">
        <ele>88.01</ele>
        <time>2015-03-13T15:39:08Z</time>
      </trkpt>
      <trkpt lat="43.16566" lon="6.61765">
        <ele>87.38</ele>
        <time>2015-03-13T15:39:25Z</time>
      </trkpt>
      <trkpt lat="43.16529" lon="6.61786">
        <ele>85.93</ele>
        <time>2015-03-13T15:40:15Z</time>
      </trkpt>
      <trkpt lat="43.16524" lon="6.61801">
        <ele>80.7</ele>
        <time>2015-03-13T15:43:29Z</time>
      </trkpt>
      <trkpt lat="43.16517" lon="6.61802">
        <ele>80.6</ele>
        <time>2015-03-13T15:43:40Z</time>
      </trkpt>
      <trkpt lat="43.16507" lon="6.61805">
        <ele>82</ele>
        <time>2015-03-13T15:44:41Z</time>
      </trkpt>
      <trkpt lat="43.16496" lon="6.61809">
        <ele>82</ele>
        <time>2015-03-13T15:44:55Z</time>
      </trkpt>
      <trkpt lat="43.16489" lon="6.61819">
        <ele>81.9</ele>
        <time>2015-03-13T15:45:07Z</time>
      </trkpt>
      <trkpt lat="43.1648" lon="6.6182">
        <ele>81.2</ele>
        <time>2015-03-13T15:45:17Z</time>
      </trkpt>
      <trkpt lat="43.16467" lon="6.61825">
        <ele>80.61</ele>
        <time>2015-03-13T15:45:36Z</time>
      </trkpt>
      <trkpt lat="43.16451" lon="6.61828">
        <ele>79.71</ele>
        <time>2015-03-13T15:45:55Z</time>
      </trkpt>
      <trkpt lat="43.16438" lon="6.61835">
        <ele>79.2</ele>
        <time>2015-03-13T15:46:08Z</time>
      </trkpt>
      <trkpt lat="43.16428" lon="6.61842">
        <ele>78.56</ele>
        <time>2015-03-13T15:46:18Z</time>
      </trkpt>
      <trkpt lat="43.16417" lon="6.61847">
        <ele>78.03</ele>
        <time>2015-03-13T15:46:28Z</time>
      </trkpt>
      <trkpt lat="43.16404" lon="6.61863">
        <ele>77.03</ele>
        <time>2015-03-13T15:46:48Z</time>
      </trkpt>
      <trkpt lat="43.16394" lon="6.61863">
        <ele>76.03</ele>
        <time>2015-03-13T15:47:00Z</time>
      </trkpt>
      <trkpt lat="43.16372" lon="6.61874">
        <ele>74.53</ele>
        <time>2015-03-13T15:47:20Z</time>
      </trkpt>
      <trkpt lat="43.1636" lon="6.61877">
        <ele>73.54</ele>
        <time>2015-03-13T15:47:30Z</time>
      </trkpt>
      <trkpt lat="43.16347" lon="6.61878">
        <ele>72.33</ele>
        <time>2015-03-13T15:47:42Z</time>
      </trkpt>
      <trkpt lat="43.16339" lon="6.61885">
        <ele>71.23</ele>
        <time>2015-03-13T15:47:52Z</time>
      </trkpt>
      <trkpt lat="43.1631" lon="6.61898">
        <ele>69.31</ele>
        <time>2015-03-13T15:48:22Z</time>
      </trkpt>
      <trkpt lat="43.16303" lon="6.61896">
        <ele>68.9</ele>
        <time>2015-03-13T15:48:32Z</time>
      </trkpt>
      <trkpt lat="43.16289" lon="6.61893">
        <ele>68.7</ele>
        <time>2015-03-13T15:48:43Z</time>
      </trkpt>
      <trkpt lat="43.16278" lon="6.61897">
        <ele>67.73</ele>
        <time>2015-03-13T15:48:58Z</time>
      </trkpt>
      <trkpt lat="43.16273" lon="6.61907">
        <ele>67.03</ele>
        <time>2015-03-13T15:49:08Z</time>
      </trkpt>
      <trkpt lat="43.16266" lon="6.61914">
        <ele>66.35</ele>
        <time>2015-03-13T15:49:18Z</time>
      </trkpt>
      <trkpt lat="43.1626" lon="6.6192">
        <ele>65.73</ele>
        <time>2015-03-13T15:49:29Z</time>
      </trkpt>
      <trkpt lat="43.16252" lon="6.61921">
        <ele>65.4</ele>
        <time>2015-03-13T15:49:42Z</time>
      </trkpt>
      <trkpt lat="43.1625" lon="6.61931">
        <ele>63.94</ele>
        <time>2015-03-13T15:50:11Z</time>
      </trkpt>
      <trkpt lat="43.16241" lon="6.61942">
        <ele>63.28</ele>
        <time>2015-03-13T15:50:22Z</time>
      </trkpt>
      <trkpt lat="43.16148" lon="6.61949">
        <ele>56.93</ele>
        <time>2015-03-13T15:56:23Z</time>
      </trkpt>
      <trkpt lat="43.16128" lon="6.61957">
        <ele>57.07</ele>
        <time>2015-03-13T15:56:43Z</time>
      </trkpt>
      <trkpt lat="43.16119" lon="6.61975">
        <ele>58.67</ele>
        <time>2015-03-13T15:56:53Z</time>
      </trkpt>
      <trkpt lat="43.16115" lon="6.61989">
        <ele>60.33</ele>
        <time>2015-03-13T15:57:03Z</time>
      </trkpt>
      <trkpt lat="43.16102" lon="6.61979">
        <ele>62.53</ele>
        <time>2015-03-13T15:57:13Z</time>
      </trkpt>
      <trkpt lat="43.16087" lon="6.61972">
        <ele>64.53</ele>
        <time>2015-03-13T15:57:23Z</time>
      </trkpt>
      <trkpt lat="43.16078" lon="6.61977">
        <ele>66.53</ele>
        <time>2015-03-13T15:57:33Z</time>
      </trkpt>
      <trkpt lat="43.1607" lon="6.61977">
        <ele>68.53</ele>
        <time>2015-03-13T15:57:43Z</time>
      </trkpt>
      <trkpt lat="43.16056" lon="6.61974">
        <ele>70.64</ele>
        <time>2015-03-13T15:57:53Z</time>
      </trkpt>
      <trkpt lat="43.16028" lon="6.61995">
        <ele>76.47</ele>
        <time>2015-03-13T15:58:27Z</time>
      </trkpt>
      <trkpt lat="43.1602" lon="6.61993">
        <ele>75.92</ele>
        <time>2015-03-13T15:58:37Z</time>
      </trkpt>
      <trkpt lat="43.16015" lon="6.61996">
        <ele>73.25</ele>
        <time>2015-03-13T15:59:23Z</time>
      </trkpt>
      <trkpt lat="43.1601" lon="6.61997">
        <ele>67.43</ele>
        <time>2015-03-13T16:00:04Z</time>
      </trkpt>
      <trkpt lat="43.16005" lon="6.62">
        <ele>66.63</ele>
        <time>2015-03-13T16:00:16Z</time>
      </trkpt>
      <trkpt lat="43.16013" lon="6.61993">
        <ele>59.61</ele>
        <time>2015-03-13T16:04:07Z</time>
      </trkpt>
      <trkpt lat="43.16024" lon="6.61996">
        <ele>60.19</ele>
        <time>2015-03-13T16:05:02Z</time>
      </trkpt>
      <trkpt lat="43.16043" lon="6.61979">
        <ele>59.8</ele>
        <time>2015-03-13T16:05:41Z</time>
      </trkpt>
      <trkpt lat="43.16061" lon="6.61977">
        <ele>59.9</ele>
        <time>2015-03-13T16:05:52Z</time>
      </trkpt>
      <trkpt lat="43.1607" lon="6.61979">
        <ele>60.22</ele>
        <time>2015-03-13T16:06:04Z</time>
      </trkpt>
      <trkpt lat="43.16088" lon="6.61978">
        <ele>60.67</ele>
        <time>2015-03-13T16:06:24Z</time>
      </trkpt>
      <trkpt lat="43.161" lon="6.61979">
        <ele>61.77</ele>
        <time>2015-03-13T16:06:34Z</time>
      </trkpt>
      <trkpt lat="43.16108" lon="6.61985">
        <ele>62.77</ele>
        <time>2015-03-13T16:06:44Z</time>
      </trkpt>
      <trkpt lat="43.16115" lon="6.61986">
        <ele>63.37</ele>
        <time>2015-03-13T16:06:54Z</time>
      </trkpt>
      <trkpt lat="43.1612" lon="6.61983">
        <ele>64.57</ele>
        <time>2015-03-13T16:07:05Z</time>
      </trkpt>
      <trkpt lat="43.16122" lon="6.61972">
        <ele>65.76</ele>
        <time>2015-03-13T16:07:15Z</time>
      </trkpt>
      <trkpt lat="43.16122" lon="6.61959">
        <ele>66.19</ele>
        <time>2015-03-13T16:07:26Z</time>
      </trkpt>
      <trkpt lat="43.1613" lon="6.61949">
        <ele>66.97</ele>
        <time>2015-03-13T16:07:38Z</time>
      </trkpt>
      <trkpt lat="43.1614" lon="6.61941">
        <ele>67.5</ele>
        <time>2015-03-13T16:07:50Z</time>
      </trkpt>
      <trkpt lat="43.16161" lon="6.61943">
        <ele>67.6</ele>
        <time>2015-03-13T16:08:12Z</time>
      </trkpt>
      <trkpt lat="43.16182" lon="6.61953">
        <ele>67.43</ele>
        <time>2015-03-13T16:08:35Z</time>
      </trkpt>
      <trkpt lat="43.16192" lon="6.61954">
        <ele>67.67</ele>
        <time>2015-03-13T16:08:45Z</time>
      </trkpt>
      <trkpt lat="43.16207" lon="6.61951">
        <ele>67.15</ele>
        <time>2015-03-13T16:09:03Z</time>
      </trkpt>
      <trkpt lat="43.16215" lon="6.61952">
        <ele>67.13</ele>
        <time>2015-03-13T16:09:14Z</time>
      </trkpt>
      <trkpt lat="43.16225" lon="6.6195">
        <ele>66.19</ele>
        <time>2015-03-13T16:09:25Z</time>
      </trkpt>
      <trkpt lat="43.16248" lon="6.61928">
        <ele>63.3</ele>
        <time>2015-03-13T16:09:50Z</time>
      </trkpt>
      <trkpt lat="43.16259" lon="6.61919">
        <ele>62.43</ele>
        <time>2015-03-13T16:10:04Z</time>
      </trkpt>
      <trkpt lat="43.16271" lon="6.61908">
        <ele>61.81</ele>
        <time>2015-03-13T16:10:19Z</time>
      </trkpt>
      <trkpt lat="43.16275" lon="6.61899">
        <ele>61.77</ele>
        <time>2015-03-13T16:10:30Z</time>
      </trkpt>
      <trkpt lat="43.16366" lon="6.61875">
        <ele>62.33</ele>
        <time>2015-03-13T16:12:28Z</time>
      </trkpt>
      <trkpt lat="43.1638" lon="6.61867">
        <ele>61.81</ele>
        <time>2015-03-13T16:12:39Z</time>
      </trkpt>
      <trkpt lat="43.16401" lon="6.61862">
        <ele>61.7</ele>
        <time>2015-03-13T16:13:04Z</time>
      </trkpt>
      <trkpt lat="43.16495" lon="6.61807">
        <ele>64.08</ele>
        <time>2015-03-13T16:14:48Z</time>
      </trkpt>
      <trkpt lat="43.16604" lon="6.61832">
        <ele>66.15</ele>
        <time>2015-03-13T16:16:52Z</time>
      </trkpt>
      <trkpt lat="43.16627" lon="6.6182">
        <ele>66.1</ele>
        <time>2015-03-13T16:17:17Z</time>
      </trkpt>
      <trkpt lat="43.16652" lon="6.61816">
        <ele>66.69</ele>
        <time>2015-03-13T16:17:42Z</time>
      </trkpt>
      <trkpt lat="43.1667" lon="6.61807">
        <ele>68.05</ele>
        <time>2015-03-13T16:18:16Z</time>
      </trkpt>
      <trkpt lat="43.16686" lon="6.61826">
        <ele>68.7</ele>
        <time>2015-03-13T16:18:37Z</time>
      </trkpt>
      <trkpt lat="43.16698" lon="6.61826">
        <ele>69.3</ele>
        <time>2015-03-13T16:18:47Z</time>
      </trkpt>
      <trkpt lat="43.16714" lon="6.6182">
        <ele>69.43</ele>
        <time>2015-03-13T16:18:58Z</time>
      </trkpt>
      <trkpt lat="43.16725" lon="6.6182">
        <ele>70.83</ele>
        <time>2015-03-13T16:19:08Z</time>
      </trkpt>
      <trkpt lat="43.1676" lon="6.618">
        <ele>75.07</ele>
        <time>2015-03-13T16:19:54Z</time>
      </trkpt>
      <trkpt lat="43.1677" lon="6.61796">
        <ele>75.84</ele>
        <time>2015-03-13T16:20:04Z</time>
      </trkpt>
      <trkpt lat="43.16789" lon="6.61793">
        <ele>77.67</ele>
        <time>2015-03-13T16:20:22Z</time>
      </trkpt>
      <trkpt lat="43.16805" lon="6.61788">
        <ele>78.94</ele>
        <time>2015-03-13T16:20:36Z</time>
      </trkpt>
      <trkpt lat="43.16815" lon="6.61778">
        <ele>80.73</ele>
        <time>2015-03-13T16:20:46Z</time>
      </trkpt>
      <trkpt lat="43.1684" lon="6.6177">
        <ele>82.96</ele>
        <time>2015-03-13T16:21:09Z</time>
      </trkpt>
      <trkpt lat="43.16845" lon="6.61764">
        <ele>84.66</ele>
        <time>2015-03-13T16:21:19Z</time>
      </trkpt>
      <trkpt lat="43.1686" lon="6.61755">
        <ele>86.63</ele>
        <time>2015-03-13T16:21:32Z</time>
      </trkpt>
      <trkpt lat="43.16867" lon="6.61752">
        <ele>90.47</ele>
        <time>2015-03-13T16:21:42Z</time>
      </trkpt>
      <trkpt lat="43.16875" lon="6.61746">
        <ele>92.83</ele>
        <time>2015-03-13T16:21:52Z</time>
      </trkpt>
      <trkpt lat="43.16872" lon="6.61751">
        <ele>95.02</ele>
        <time>2015-03-13T16:22:02Z</time>
      </trkpt>
      <trkpt lat="43.16843" lon="6.6177">
        <ele>98.07</ele>
        <time>2015-03-13T16:22:26Z</time>
      </trkpt>
      <trkpt lat="43.16812" lon="6.6179">
        <ele>103</ele>
        <time>2015-03-13T16:23:46Z</time>
      </trkpt>
      <trkpt lat="43.16833" lon="6.61783">
        <ele>102.8</ele>
        <time>2015-03-13T16:24:14Z</time>
      </trkpt>
      <trkpt lat="43.16862" lon="6.61765">
        <ele>103.59</ele>
        <time>2015-03-13T16:24:49Z</time>
      </trkpt>
      <trkpt lat="43.16887" lon="6.61746">
        <ele>104.9</ele>
        <time>2015-03-13T16:25:32Z</time>
      </trkpt>
      <trkpt lat="43.16947" lon="6.61698">
        <ele>125.3</ele>
        <time>2015-03-13T16:28:29Z</time>
      </trkpt>
      <trkpt lat="43.16943" lon="6.61694">
        <ele>131.72</ele>
        <time>2015-03-13T16:29:01Z</time>
      </trkpt>
      <trkpt lat="43.16939" lon="6.61684">
        <ele>131.79</ele>
        <time>2015-03-13T16:29:12Z</time>
      </trkpt>
      <trkpt lat="43.16935" lon="6.6167">
        <ele>131.8</ele>
        <time>2015-03-13T16:29:22Z</time>
      </trkpt>
      <trkpt lat="43.1693" lon="6.61659">
        <ele>132.2</ele>
        <time>2015-03-13T16:29:32Z</time>
      </trkpt>
      <trkpt lat="43.16927" lon="6.61647">
        <ele>132.87</ele>
        <time>2015-03-13T16:29:42Z</time>
      </trkpt>
      <trkpt lat="43.16927" lon="6.61635">
        <ele>133.29</ele>
        <time>2015-03-13T16:29:52Z</time>
      </trkpt>
      <trkpt lat="43.16926" lon="6.61627">
        <ele>133.4</ele>
        <time>2015-03-13T16:30:25Z</time>
      </trkpt>
      <trkpt lat="43.16919" lon="6.61632">
        <ele>134.47</ele>
        <time>2015-03-13T16:30:44Z</time>
      </trkpt>
      <trkpt lat="43.16916" lon="6.61624">
        <ele>134.69</ele>
        <time>2015-03-13T16:30:56Z</time>
      </trkpt>
      <trkpt lat="43.16903" lon="6.61608">
        <ele>134.87</ele>
        <time>2015-03-13T16:31:08Z</time>
      </trkpt>
      <trkpt lat="43.16895" lon="6.61601">
        <ele>135.67</ele>
        <time>2015-03-13T16:31:18Z</time>
      </trkpt>
      <trkpt lat="43.16887" lon="6.61586">
        <ele>136.37</ele>
        <time>2015-03-13T16:31:31Z</time>
      </trkpt>
      <trkpt lat="43.16879" lon="6.61584">
        <ele>136.79</ele>
        <time>2015-03-13T16:31:41Z</time>
      </trkpt>
      <trkpt lat="43.16869" lon="6.61583">
        <ele>137.27</ele>
        <time>2015-03-13T16:31:51Z</time>
      </trkpt>
      <trkpt lat="43.1685" lon="6.61577">
        <ele>138.27</ele>
        <time>2015-03-13T16:32:06Z</time>
      </trkpt>
      <trkpt lat="43.16881" lon="6.61596">
        <ele>138.82</ele>
        <time>2015-03-13T16:32:54Z</time>
      </trkpt>
      <trkpt lat="43.16919" lon="6.61628">
        <ele>138.38</ele>
        <time>2015-03-13T16:33:29Z</time>
      </trkpt>
      <trkpt lat="43.1693" lon="6.61628">
        <ele>138.72</ele>
        <time>2015-03-13T16:33:39Z</time>
      </trkpt>
      <trkpt lat="43.16945" lon="6.6162">
        <ele>137.88</ele>
        <time>2015-03-13T16:33:54Z</time>
      </trkpt>
      <trkpt lat="43.16957" lon="6.61605">
        <ele>136.18</ele>
        <time>2015-03-13T16:34:12Z</time>
      </trkpt>
      <trkpt lat="43.16959" lon="6.61593">
        <ele>135.24</ele>
        <time>2015-03-13T16:34:22Z</time>
      </trkpt>
      <trkpt lat="43.16959" lon="6.61583">
        <ele>134.63</ele>
        <time>2015-03-13T16:34:32Z</time>
      </trkpt>
      <trkpt lat="43.1696" lon="6.61569">
        <ele>134.03</ele>
        <time>2015-03-13T16:34:42Z</time>
      </trkpt>
      <trkpt lat="43.16963" lon="6.61551">
        <ele>132.83</ele>
        <time>2015-03-13T16:34:59Z</time>
      </trkpt>
      <trkpt lat="43.16965" lon="6.61535">
        <ele>131.16</ele>
        <time>2015-03-13T16:35:11Z</time>
      </trkpt>
      <trkpt lat="43.16974" lon="6.61534">
        <ele>129.35</ele>
        <time>2015-03-13T16:35:26Z</time>
      </trkpt>
      <trkpt lat="43.16974" lon="6.61527">
        <ele>128.33</ele>
        <time>2015-03-13T16:35:36Z</time>
      </trkpt>
      <trkpt lat="43.16974" lon="6.61514">
        <ele>127.53</ele>
        <time>2015-03-13T16:35:46Z</time>
      </trkpt>
      <trkpt lat="43.16973" lon="6.61503">
        <ele>126.83</ele>
        <time>2015-03-13T16:35:56Z</time>
      </trkpt>
      <trkpt lat="43.16974" lon="6.61488">
        <ele>126.13</ele>
        <time>2015-03-13T16:36:06Z</time>
      </trkpt>
      <trkpt lat="43.16972" lon="6.61472">
        <ele>124.93</ele>
        <time>2015-03-13T16:36:17Z</time>
      </trkpt>
      <trkpt lat="43.16975" lon="6.61465">
        <ele>123.93</ele>
        <time>2015-03-13T16:36:27Z</time>
      </trkpt>
      <trkpt lat="43.16979" lon="6.61458">
        <ele>121.61</ele>
        <time>2015-03-13T16:36:46Z</time>
      </trkpt>
      <trkpt lat="43.16976" lon="6.6145">
        <ele>119.94</ele>
        <time>2015-03-13T16:36:56Z</time>
      </trkpt>
      <trkpt lat="43.16975" lon="6.61441">
        <ele>118.54</ele>
        <time>2015-03-13T16:37:06Z</time>
      </trkpt>
      <trkpt lat="43.16971" lon="6.61437">
        <ele>116.99</ele>
        <time>2015-03-13T16:37:32Z</time>
      </trkpt>
      <trkpt lat="43.16968" lon="6.61423">
        <ele>116.16</ele>
        <time>2015-03-13T16:37:42Z</time>
      </trkpt>
      <trkpt lat="43.16965" lon="6.61413">
        <ele>114.76</ele>
        <time>2015-03-13T16:37:52Z</time>
      </trkpt>
      <trkpt lat="43.16963" lon="6.61402">
        <ele>113.66</ele>
        <time>2015-03-13T16:38:02Z</time>
      </trkpt>
      <trkpt lat="43.16957" lon="6.6139">
        <ele>112.07</ele>
        <time>2015-03-13T16:38:12Z</time>
      </trkpt>
      <trkpt lat="43.16952" lon="6.61381">
        <ele>110.64</ele>
        <time>2015-03-13T16:38:22Z</time>
      </trkpt>
      <trkpt lat="43.16944" lon="6.61369">
        <ele>109.03</ele>
        <time>2015-03-13T16:38:33Z</time>
      </trkpt>
      <trkpt lat="43.1693" lon="6.61351">
        <ele>107.93</ele>
        <time>2015-03-13T16:38:47Z</time>
      </trkpt>
      <trkpt lat="43.16918" lon="6.61343">
        <ele>107.13</ele>
        <time>2015-03-13T16:38:57Z</time>
      </trkpt>
      <trkpt lat="43.16908" lon="6.61342">
        <ele>105.93</ele>
        <time>2015-03-13T16:39:07Z</time>
      </trkpt>
      <trkpt lat="43.169" lon="6.61331">
        <ele>105.03</ele>
        <time>2015-03-13T16:39:17Z</time>
      </trkpt>
      <trkpt lat="43.16889" lon="6.61316">
        <ele>103.16</ele>
        <time>2015-03-13T16:39:33Z</time>
      </trkpt>
      <trkpt lat="43.16909" lon="6.61267">
        <ele>96.06</ele>
        <time>2015-03-13T16:40:19Z</time>
      </trkpt>
      <trkpt lat="43.16913" lon="6.61249">
        <ele>94.74</ele>
        <time>2015-03-13T16:40:32Z</time>
      </trkpt>
      <trkpt lat="43.16915" lon="6.61235">
        <ele>93.04</ele>
        <time>2015-03-13T16:40:42Z</time>
      </trkpt>
      <trkpt lat="43.16918" lon="6.61222">
        <ele>91.54</ele>
        <time>2015-03-13T16:40:52Z</time>
      </trkpt>
      <trkpt lat="43.16928" lon="6.61201">
        <ele>90.23</ele>
        <time>2015-03-13T16:41:10Z</time>
      </trkpt>
      <trkpt lat="43.16934" lon="6.61195">
        <ele>89.53</ele>
        <time>2015-03-13T16:41:20Z</time>
      </trkpt>
      <trkpt lat="43.16943" lon="6.61183">
        <ele>88.83</ele>
        <time>2015-03-13T16:41:34Z</time>
      </trkpt>
      <trkpt lat="43.16948" lon="6.61176">
        <ele>88.65</ele>
        <time>2015-03-13T16:41:44Z</time>
      </trkpt>
      <trkpt lat="43.16955" lon="6.6117">
        <ele>93.45</ele>
        <time>2015-03-13T16:43:29Z</time>
      </trkpt>
      <trkpt lat="43.1696" lon="6.61167">
        <ele>94</ele>
        <time>2015-03-13T16:43:39Z</time>
      </trkpt>
      <trkpt lat="43.16969" lon="6.61167">
        <ele>94.94</ele>
        <time>2015-03-13T16:43:49Z</time>
      </trkpt>
      <trkpt lat="43.16975" lon="6.6117">
        <ele>95.11</ele>
        <time>2015-03-13T16:43:59Z</time>
      </trkpt>
      <trkpt lat="43.16982" lon="6.61175">
        <ele>95.2</ele>
        <time>2015-03-13T16:44:09Z</time>
      </trkpt>
      <trkpt lat="43.16998" lon="6.61181">
        <ele>93.81</ele>
        <time>2015-03-13T16:44:43Z</time>
      </trkpt>
      <trkpt lat="43.17012" lon="6.61187">
        <ele>93.03</ele>
        <time>2015-03-13T16:45:12Z</time>
      </trkpt>
      <trkpt lat="43.17021" lon="6.6119">
        <ele>92</ele>
        <time>2015-03-13T16:45:25Z</time>
      </trkpt>
      <trkpt lat="43.1703" lon="6.61192">
        <ele>91.73</ele>
        <time>2015-03-13T16:45:35Z</time>
      </trkpt>
      <trkpt lat="43.17038" lon="6.61184">
        <ele>88.64</ele>
        <time>2015-03-13T16:45:45Z</time>
      </trkpt>
      <trkpt lat="43.17045" lon="6.61166">
        <ele>84.82</ele>
        <time>2015-03-13T16:46:25Z</time>
      </trkpt>
      <trkpt lat="43.1705" lon="6.61155">
        <ele>84.63</ele>
        <time>2015-03-13T16:46:38Z</time>
      </trkpt>
      <trkpt lat="43.17056" lon="6.61143">
        <ele>84.38</ele>
        <time>2015-03-13T16:46:49Z</time>
      </trkpt>
      <trkpt lat="43.17063" lon="6.61128">
        <ele>83.15</ele>
        <time>2015-03-13T16:47:02Z</time>
      </trkpt>
      <trkpt lat="43.17065" lon="6.61114">
        <ele>81.93</ele>
        <time>2015-03-13T16:47:12Z</time>
      </trkpt>
      <trkpt lat="43.17069" lon="6.61097">
        <ele>80.88</ele>
        <time>2015-03-13T16:47:39Z</time>
      </trkpt>
      <trkpt lat="43.17075" lon="6.61085">
        <ele>81</ele>
        <time>2015-03-13T16:47:51Z</time>
      </trkpt>
      <trkpt lat="43.17077" lon="6.61077">
        <ele>80.3</ele>
        <time>2015-03-13T16:48:01Z</time>
      </trkpt>
      <trkpt lat="43.17077" lon="6.61064">
        <ele>80.02</ele>
        <time>2015-03-13T16:48:11Z</time>
      </trkpt>
      <trkpt lat="43.17079" lon="6.6105">
        <ele>79.35</ele>
        <time>2015-03-13T16:48:21Z</time>
      </trkpt>
      <trkpt lat="43.17084" lon="6.61035">
        <ele>78.73</ele>
        <time>2015-03-13T16:48:32Z</time>
      </trkpt>
      <trkpt lat="43.17087" lon="6.61022">
        <ele>78.33</ele>
        <time>2015-03-13T16:48:42Z</time>
      </trkpt>
      <trkpt lat="43.17093" lon="6.61014">
        <ele>77.53</ele>
        <time>2015-03-13T16:49:03Z</time>
      </trkpt>
      <trkpt lat="43.17098" lon="6.61018">
        <ele>76.53</ele>
        <time>2015-03-13T16:49:14Z</time>
      </trkpt>
      <trkpt lat="43.17104" lon="6.61024">
        <ele>75.33</ele>
        <time>2015-03-13T16:49:28Z</time>
      </trkpt>
      <trkpt lat="43.17112" lon="6.61051">
        <ele>73.83</ele>
        <time>2015-03-13T16:49:47Z</time>
      </trkpt>
      <trkpt lat="43.17135" lon="6.61171">
        <ele>63.73</ele>
        <time>2015-03-13T16:51:32Z</time>
      </trkpt>
      <trkpt lat="43.17154" lon="6.61175">
        <ele>61.66</ele>
        <time>2015-03-13T16:51:47Z</time>
      </trkpt>
      <trkpt lat="43.1716" lon="6.61183">
        <ele>58.53</ele>
        <time>2015-03-13T16:52:29Z</time>
      </trkpt>
      <trkpt lat="43.17172" lon="6.61184">
        <ele>58.72</ele>
        <time>2015-03-13T16:53:01Z</time>
      </trkpt>
      <trkpt lat="43.17184" lon="6.61185">
        <ele>58.04</ele>
        <time>2015-03-13T16:53:11Z</time>
      </trkpt>
      <trkpt lat="43.17197" lon="6.61178">
        <ele>56.47</ele>
        <time>2015-03-13T16:53:21Z</time>
      </trkpt>
      <trkpt lat="43.17202" lon="6.61164">
        <ele>55.13</ele>
        <time>2015-03-13T16:53:31Z</time>
      </trkpt>
      <trkpt lat="43.17199" lon="6.61153">
        <ele>53.84</ele>
        <time>2015-03-13T16:53:41Z</time>
      </trkpt>
      <trkpt lat="43.17195" lon="6.61152">
        <ele>52.05</ele>
        <time>2015-03-13T16:53:55Z</time>
      </trkpt>
      <trkpt lat="43.17182" lon="6.61144">
        <ele>51.01</ele>
        <time>2015-03-13T16:54:06Z</time>
      </trkpt>
      <trkpt lat="43.17169" lon="6.61125">
        <ele>49.03</ele>
        <time>2015-03-13T16:54:27Z</time>
      </trkpt>
      <trkpt lat="43.17171" lon="6.61107">
        <ele>47.73</ele>
        <time>2015-03-13T16:54:40Z</time>
      </trkpt>
      <trkpt lat="43.1718" lon="6.61092">
        <ele>46.26</ele>
        <time>2015-03-13T16:54:53Z</time>
      </trkpt>
      <trkpt lat="43.17188" lon="6.61081">
        <ele>45.13</ele>
        <time>2015-03-13T16:55:03Z</time>
      </trkpt>
      <trkpt lat="43.17198" lon="6.61059">
        <ele>42.73</ele>
        <time>2015-03-13T16:55:21Z</time>
      </trkpt>
      <trkpt lat="43.17204" lon="6.61042">
        <ele>40.57</ele>
        <time>2015-03-13T16:55:34Z</time>
      </trkpt>
      <trkpt lat="43.17205" lon="6.61029">
        <ele>38.66</ele>
        <time>2015-03-13T16:55:46Z</time>
      </trkpt>
      <trkpt lat="43.17205" lon="6.61022">
        <ele>37.24</ele>
        <time>2015-03-13T16:56:06Z</time>
      </trkpt>
      <trkpt lat="43.17204" lon="6.61006">
        <ele>36.24</ele>
        <time>2015-03-13T16:56:16Z</time>
      </trkpt>
      <trkpt lat="43.17204" lon="6.6099">
        <ele>35.03</ele>
        <time>2015-03-13T16:56:26Z</time>
      </trkpt>
      <trkpt lat="43.17208" lon="6.6098">
        <ele>33.38</ele>
        <time>2015-03-13T16:57:05Z</time>
      </trkpt>
      <trkpt lat="43.17217" lon="6.60981">
        <ele>32.89</ele>
        <time>2015-03-13T16:57:15Z</time>
      </trkpt>
      <trkpt lat="43.1723" lon="6.60987">
        <ele>32.33</ele>
        <time>2015-03-13T16:57:29Z</time>
      </trkpt>
      <trkpt lat="43.17238" lon="6.61002">
        <ele>31.61</ele>
        <time>2015-03-13T16:57:41Z</time>
      </trkpt>
      <trkpt lat="43.17253" lon="6.61027">
        <ele>30.41</ele>
        <time>2015-03-13T16:58:04Z</time>
      </trkpt>
      <trkpt lat="43.17259" lon="6.61049">
        <ele>29.53</ele>
        <time>2015-03-13T16:58:17Z</time>
      </trkpt>
      <trkpt lat="43.17264" lon="6.61065">
        <ele>28.68</ele>
        <time>2015-03-13T16:58:28Z</time>
      </trkpt>
      <trkpt lat="43.17269" lon="6.6108">
        <ele>26.85</ele>
        <time>2015-03-13T16:58:38Z</time>
      </trkpt>
      <trkpt lat="43.17273" lon="6.6109">
        <ele>25.86</ele>
        <time>2015-03-13T16:58:48Z</time>
      </trkpt>
      <trkpt lat="43.17288" lon="6.611">
        <ele>22.71</ele>
        <time>2015-03-13T16:59:05Z</time>
      </trkpt>
      <trkpt lat="43.17305" lon="6.61106">
        <ele>21.66</ele>
        <time>2015-03-13T16:59:16Z</time>
      </trkpt>
      <trkpt lat="43.17312" lon="6.61114">
        <ele>20.64</ele>
        <time>2015-03-13T16:59:26Z</time>
      </trkpt>
      <trkpt lat="43.1732" lon="6.61121">
        <ele>18.96</ele>
        <time>2015-03-13T16:59:36Z</time>
      </trkpt>
      <trkpt lat="43.17329" lon="6.6113">
        <ele>17.34</ele>
        <time>2015-03-13T16:59:47Z</time>
      </trkpt>
      <trkpt lat="43.17343" lon="6.61134">
        <ele>15.43</ele>
        <time>2015-03-13T17:00:07Z</time>
      </trkpt>
      <trkpt lat="43.17351" lon="6.61126">
        <ele>14.68</ele>
        <time>2015-03-13T17:00:19Z</time>
      </trkpt>
      <trkpt lat="43.17355" lon="6.61108">
        <ele>14.64</ele>
        <time>2015-03-13T17:00:29Z</time>
      </trkpt>
      <trkpt lat="43.17358" lon="6.61101">
        <ele>14.56</ele>
        <time>2015-03-13T17:00:43Z</time>
      </trkpt>
      <trkpt lat="43.17354" lon="6.61082">
        <ele>13.7</ele>
        <time>2015-03-13T17:01:52Z</time>
      </trkpt>
      <trkpt lat="43.17356" lon="6.61073">
        <ele>13.31</ele>
        <time>2015-03-13T17:02:15Z</time>
      </trkpt>
      <trkpt lat="43.17361" lon="6.61067">
        <ele>13.1</ele>
        <time>2015-03-13T17:02:35Z</time>
      </trkpt>
      <trkpt lat="43.17361" lon="6.61058">
        <ele>12.42</ele>
        <time>2015-03-13T17:02:48Z</time>
      </trkpt>
      <trkpt lat="43.1736" lon="6.61047">
        <ele>11.7</ele>
        <time>2015-03-13T17:03:00Z</time>
      </trkpt>
      <trkpt lat="43.17373" lon="6.61008">
        <ele>11.33</ele>
        <time>2015-03-13T17:04:15Z</time>
      </trkpt>
      <trkpt lat="43.17383" lon="6.60987">
        <ele>11.48</ele>
        <time>2015-03-13T17:04:32Z</time>
      </trkpt>
      <trkpt lat="43.17425" lon="6.60954">
        <ele>12.74</ele>
        <time>2015-03-13T17:05:11Z</time>
      </trkpt>
      <trkpt lat="43.17452" lon="6.60894">
        <ele>19.49</ele>
        <time>2015-03-13T17:05:59Z</time>
      </trkpt>
      <trkpt lat="43.17447" lon="6.60879">
        <ele>20.27</ele>
        <time>2015-03-13T17:06:09Z</time>
      </trkpt>
      <trkpt lat="43.17437" lon="6.6086">
        <ele>23.21</ele>
        <time>2015-03-13T17:06:22Z</time>
      </trkpt>
      <trkpt lat="43.17435" lon="6.60845">
        <ele>26.18</ele>
        <time>2015-03-13T17:06:33Z</time>
      </trkpt>
      <trkpt lat="43.1744" lon="6.6083">
        <ele>28.59</ele>
        <time>2015-03-13T17:06:45Z</time>
      </trkpt>
      <trkpt lat="43.17448" lon="6.60816">
        <ele>30.31</ele>
        <time>2015-03-13T17:06:56Z</time>
      </trkpt>
      <trkpt lat="43.17456" lon="6.60803">
        <ele>32.63</ele>
        <time>2015-03-13T17:07:06Z</time>
      </trkpt>
      <trkpt lat="43.17466" lon="6.60797">
        <ele>34.54</ele>
        <time>2015-03-13T17:07:17Z</time>
      </trkpt>
      <trkpt lat="43.17477" lon="6.60794">
        <ele>36.53</ele>
        <time>2015-03-13T17:07:27Z</time>
      </trkpt>
      <trkpt lat="43.17486" lon="6.60788">
        <ele>38.6</ele>
        <time>2015-03-13T17:07:37Z</time>
      </trkpt>
      <trkpt lat="43.17496" lon="6.60776">
        <ele>40.17</ele>
        <time>2015-03-13T17:07:49Z</time>
      </trkpt>
      <trkpt lat="43.17508" lon="6.60767">
        <ele>41.13</ele>
        <time>2015-03-13T17:07:59Z</time>
      </trkpt>
      <trkpt lat="43.17517" lon="6.60764">
        <ele>41.65</ele>
        <time>2015-03-13T17:08:09Z</time>
      </trkpt>
      <trkpt lat="43.17527" lon="6.60758">
        <ele>42.37</ele>
        <time>2015-03-13T17:08:19Z</time>
      </trkpt>
      <trkpt lat="43.1754" lon="6.60754">
        <ele>43.17</ele>
        <time>2015-03-13T17:08:29Z</time>
      </trkpt>
      <trkpt lat="43.17555" lon="6.60747">
        <ele>43.6</ele>
        <time>2015-03-13T17:08:44Z</time>
      </trkpt>
      <trkpt lat="43.17569" lon="6.60743">
        <ele>43.26</ele>
        <time>2015-03-13T17:08:56Z</time>
      </trkpt>
      <trkpt lat="43.1759" lon="6.6073">
        <ele>40.32</ele>
        <time>2015-03-13T17:09:13Z</time>
      </trkpt>
      <trkpt lat="43.17598" lon="6.60715">
        <ele>37.14</ele>
        <time>2015-03-13T17:09:25Z</time>
      </trkpt>
      <trkpt lat="43.17602" lon="6.60697">
        <ele>35.46</ele>
        <time>2015-03-13T17:09:35Z</time>
      </trkpt>
      <trkpt lat="43.17606" lon="6.60685">
        <ele>33.66</ele>
        <time>2015-03-13T17:09:45Z</time>
      </trkpt>
      <trkpt lat="43.17612" lon="6.60673">
        <ele>33.13</ele>
        <time>2015-03-13T17:09:55Z</time>
      </trkpt>
      <trkpt lat="43.17621" lon="6.60662">
        <ele>32.63</ele>
        <time>2015-03-13T17:10:05Z</time>
      </trkpt>
      <trkpt lat="43.1763" lon="6.60653">
        <ele>31.95</ele>
        <time>2015-03-13T17:10:15Z</time>
      </trkpt>
      <trkpt lat="43.17641" lon="6.60651">
        <ele>33.51</ele>
        <time>2015-03-13T17:10:25Z</time>
      </trkpt>
      <trkpt lat="43.17656" lon="6.60654">
        <ele>35.17</ele>
        <time>2015-03-13T17:10:35Z</time>
      </trkpt>
      <trkpt lat="43.17664" lon="6.60666">
        <ele>35.68</ele>
        <time>2015-03-13T17:10:47Z</time>
      </trkpt>
      <trkpt lat="43.17677" lon="6.60675">
        <ele>35.73</ele>
        <time>2015-03-13T17:11:01Z</time>
      </trkpt>
      <trkpt lat="43.17686" lon="6.60686">
        <ele>34.22</ele>
        <time>2015-03-13T17:11:13Z</time>
      </trkpt>
      <trkpt lat="43.17695" lon="6.607">
        <ele>31.83</ele>
        <time>2015-03-13T17:11:23Z</time>
      </trkpt>
      <trkpt lat="43.1771" lon="6.60713">
        <ele>30.06</ele>
        <time>2015-03-13T17:11:39Z</time>
      </trkpt>
      <trkpt lat="43.17722" lon="6.60721">
        <ele>29.8</ele>
        <time>2015-03-13T17:11:49Z</time>
      </trkpt>
      <trkpt lat="43.17734" lon="6.60725">
        <ele>29.71</ele>
        <time>2015-03-13T17:12:00Z</time>
      </trkpt>
      <trkpt lat="43.17744" lon="6.6073">
        <ele>30.87</ele>
        <time>2015-03-13T17:12:10Z</time>
      </trkpt>
      <trkpt lat="43.17769" lon="6.60736">
        <ele>32.74</ele>
        <time>2015-03-13T17:12:28Z</time>
      </trkpt>
      <trkpt lat="43.17798" lon="6.60738">
        <ele>33.3</ele>
        <time>2015-03-13T17:12:57Z</time>
      </trkpt>
      <trkpt lat="43.17812" lon="6.6074">
        <ele>33.44</ele>
        <time>2015-03-13T17:13:07Z</time>
      </trkpt>
      <trkpt lat="43.17822" lon="6.60742">
        <ele>35.33</ele>
        <time>2015-03-13T17:13:18Z</time>
      </trkpt>
      <trkpt lat="43.17844" lon="6.60744">
        <ele>35.92</ele>
        <time>2015-03-13T17:13:36Z</time>
      </trkpt>
      <trkpt lat="43.17871" lon="6.60741">
        <ele>35.98</ele>
        <time>2015-03-13T17:13:59Z</time>
      </trkpt>
      <trkpt lat="43.17887" lon="6.60735">
        <ele>36.79</ele>
        <time>2015-03-13T17:14:10Z</time>
      </trkpt>
      <trkpt lat="43.17902" lon="6.60732">
        <ele>38.42</ele>
        <time>2015-03-13T17:14:25Z</time>
      </trkpt>
      <trkpt lat="43.17911" lon="6.60731">
        <ele>40.6</ele>
        <time>2015-03-13T17:14:36Z</time>
      </trkpt>
      <trkpt lat="43.17923" lon="6.6073">
        <ele>41.97</ele>
        <time>2015-03-13T17:14:46Z</time>
      </trkpt>
      <trkpt lat="43.17939" lon="6.60728">
        <ele>43.14</ele>
        <time>2015-03-13T17:14:59Z</time>
      </trkpt>
      <trkpt lat="43.17953" lon="6.60727">
        <ele>43.87</ele>
        <time>2015-03-13T17:15:09Z</time>
      </trkpt>
      <trkpt lat="43.17971" lon="6.60721">
        <ele>42.92</ele>
        <time>2015-03-13T17:15:23Z</time>
      </trkpt>
      <trkpt lat="43.17981" lon="6.60713">
        <ele>42.13</ele>
        <time>2015-03-13T17:15:34Z</time>
      </trkpt>
      <trkpt lat="43.17995" lon="6.60704">
        <ele>42</ele>
        <time>2015-03-13T17:15:44Z</time>
      </trkpt>
      <trkpt lat="43.18008" lon="6.60693">
        <ele>41.3</ele>
        <time>2015-03-13T17:15:54Z</time>
      </trkpt>
      <trkpt lat="43.18028" lon="6.60684">
        <ele>38.87</ele>
        <time>2015-03-13T17:16:12Z</time>
      </trkpt>
      <trkpt lat="43.18042" lon="6.60673">
        <ele>37.13</ele>
        <time>2015-03-13T17:16:26Z</time>
      </trkpt>
      <trkpt lat="43.18056" lon="6.60661">
        <ele>35.9</ele>
        <time>2015-03-13T17:16:37Z</time>
      </trkpt>
      <trkpt lat="43.18065" lon="6.60647">
        <ele>35.73</ele>
        <time>2015-03-13T17:16:49Z</time>
      </trkpt>
      <trkpt lat="43.18088" lon="6.60636">
        <ele>34.83</ele>
        <time>2015-03-13T17:17:07Z</time>
      </trkpt>
      <trkpt lat="43.18104" lon="6.60621">
        <ele>34.33</ele>
        <time>2015-03-13T17:17:23Z</time>
      </trkpt>
      <trkpt lat="43.18117" lon="6.60617">
        <ele>33.91</ele>
        <time>2015-03-13T17:17:33Z</time>
      </trkpt>
      <trkpt lat="43.1813" lon="6.60614">
        <ele>31</ele>
        <time>2015-03-13T17:17:43Z</time>
      </trkpt>
      <trkpt lat="43.18146" lon="6.60618">
        <ele>29.34</ele>
        <time>2015-03-13T17:17:53Z</time>
      </trkpt>
      <trkpt lat="43.18167" lon="6.6063">
        <ele>27.43</ele>
        <time>2015-03-13T17:18:13Z</time>
      </trkpt>
      <trkpt lat="43.18179" lon="6.60639">
        <ele>26.71</ele>
        <time>2015-03-13T17:18:23Z</time>
      </trkpt>
      <trkpt lat="43.18191" lon="6.6065">
        <ele>25.94</ele>
        <time>2015-03-13T17:18:33Z</time>
      </trkpt>
      <trkpt lat="43.18206" lon="6.60665">
        <ele>25.49</ele>
        <time>2015-03-13T17:18:48Z</time>
      </trkpt>
      <trkpt lat="43.18218" lon="6.60668">
        <ele>25.2</ele>
        <time>2015-03-13T17:18:58Z</time>
      </trkpt>
      <trkpt lat="43.18231" lon="6.60662">
        <ele>26.57</ele>
        <time>2015-03-13T17:19:10Z</time>
      </trkpt>
      <trkpt lat="43.18243" lon="6.60654">
        <ele>26.88</ele>
        <time>2015-03-13T17:19:22Z</time>
      </trkpt>
      <trkpt lat="43.18252" lon="6.60634">
        <ele>28.12</ele>
        <time>2015-03-13T17:19:34Z</time>
      </trkpt>
      <trkpt lat="43.18257" lon="6.60622">
        <ele>28.09</ele>
        <time>2015-03-13T17:19:44Z</time>
      </trkpt>
      <trkpt lat="43.18262" lon="6.60604">
        <ele>27.34</ele>
        <time>2015-03-13T17:19:54Z</time>
      </trkpt>
      <trkpt lat="43.18265" lon="6.60587">
        <ele>28.54</ele>
        <time>2015-03-13T17:20:04Z</time>
      </trkpt>
      <trkpt lat="43.18283" lon="6.60561">
        <ele>30.07</ele>
        <time>2015-03-13T17:20:28Z</time>
      </trkpt>
      <trkpt lat="43.18286" lon="6.60546">
        <ele>31.33</ele>
        <time>2015-03-13T17:20:38Z</time>
      </trkpt>
      <trkpt lat="43.18293" lon="6.60529">
        <ele>32.97</ele>
        <time>2015-03-13T17:20:48Z</time>
      </trkpt>
      <trkpt lat="43.18297" lon="6.6051">
        <ele>33.98</ele>
        <time>2015-03-13T17:20:58Z</time>
      </trkpt>
      <trkpt lat="43.18299" lon="6.60493">
        <ele>34.18</ele>
        <time>2015-03-13T17:21:08Z</time>
      </trkpt>
      <trkpt lat="43.18301" lon="6.60475">
        <ele>34.98</ele>
        <time>2015-03-13T17:21:18Z</time>
      </trkpt>
      <trkpt lat="43.18304" lon="6.60456">
        <ele>34.9</ele>
        <time>2015-03-13T17:21:28Z</time>
      </trkpt>
      <trkpt lat="43.1831" lon="6.60444">
        <ele>35.12</ele>
        <time>2015-03-13T17:21:40Z</time>
      </trkpt>
      <trkpt lat="43.18334" lon="6.60409">
        <ele>34.01</ele>
        <time>2015-03-13T17:22:09Z</time>
      </trkpt>
      <trkpt lat="43.18338" lon="6.60404">
        <ele>29.73</ele>
        <time>2015-03-13T17:22:33Z</time>
      </trkpt>
      <trkpt lat="43.18352" lon="6.6041">
        <ele>28.03</ele>
        <time>2015-03-13T17:22:43Z</time>
      </trkpt>
      <trkpt lat="43.18368" lon="6.60418">
        <ele>27.23</ele>
        <time>2015-03-13T17:22:56Z</time>
      </trkpt>
      <trkpt lat="43.18393" lon="6.60442">
        <ele>25</ele>
        <time>2015-03-13T17:23:43Z</time>
      </trkpt>
      <trkpt lat="43.18428" lon="6.6046">
        <ele>24.3</ele>
        <time>2015-03-13T17:24:08Z</time>
      </trkpt>
      <trkpt lat="43.18449" lon="6.60443">
        <ele>22.57</ele>
        <time>2015-03-13T17:24:27Z</time>
      </trkpt>
      <trkpt lat="43.18457" lon="6.6042">
        <ele>20.96</ele>
        <time>2015-03-13T17:24:42Z</time>
      </trkpt>
      <trkpt lat="43.18457" lon="6.60398">
        <ele>17.67</ele>
        <time>2015-03-13T17:24:53Z</time>
      </trkpt>
      <trkpt lat="43.18453" lon="6.60382">
        <ele>15.32</ele>
        <time>2015-03-13T17:25:03Z</time>
      </trkpt>
      <trkpt lat="43.18448" lon="6.60361">
        <ele>14.43</ele>
        <time>2015-03-13T17:25:14Z</time>
      </trkpt>
      <trkpt lat="43.18438" lon="6.60343">
        <ele>12.85</ele>
        <time>2015-03-13T17:25:27Z</time>
      </trkpt>
      <trkpt lat="43.18427" lon="6.60327">
        <ele>10.51</ele>
        <time>2015-03-13T17:25:43Z</time>
      </trkpt>
      <trkpt lat="43.18416" lon="6.6031">
        <ele>8.74</ele>
        <time>2015-03-13T17:25:53Z</time>
      </trkpt>
      <trkpt lat="43.1841" lon="6.60295">
        <ele>7.26</ele>
        <time>2015-03-13T17:26:03Z</time>
      </trkpt>
      <trkpt lat="43.18409" lon="6.60279">
        <ele>3.73</ele>
        <time>2015-03-13T17:26:14Z</time>
      </trkpt>
      <trkpt lat="43.18411" lon="6.60273">
        <ele>2.5</ele>
        <time>2015-03-13T17:26:25Z</time>
      </trkpt>
      <trkpt lat="43.18404" lon="6.60239">
        <ele>-1.72</ele>
        <time>2015-03-13T17:32:22Z</time>
      </trkpt>
      <trkpt lat="43.18397" lon="6.60221">
        <ele>-1.43</ele>
        <time>2015-03-13T17:32:35Z</time>
      </trkpt>
      <trkpt lat="43.18385" lon="6.60204">
        <ele>-1.2</ele>
        <time>2015-03-13T17:32:50Z</time>
      </trkpt>
      <trkpt lat="43.18355" lon="6.60162">
        <ele>-1.2</ele>
        <time>2015-03-13T17:33:30Z</time>
      </trkpt>
      <trkpt lat="43.1836" lon="6.60132">
        <ele>-2.27</ele>
        <time>2015-03-13T17:33:51Z</time>
      </trkpt>
      <trkpt lat="43.18361" lon="6.60112">
        <ele>-2.01</ele>
        <time>2015-03-13T17:34:03Z</time>
      </trkpt>
      <trkpt lat="43.18364" lon="6.601">
        <ele>-1.6</ele>
        <time>2015-03-13T17:34:13Z</time>
      </trkpt>
      <trkpt lat="43.1837" lon="6.60085">
        <ele>-0.88</ele>
        <time>2015-03-13T17:34:23Z</time>
      </trkpt>
      <trkpt lat="43.18376" lon="6.6007">
        <ele>-3.29</ele>
        <time>2015-03-13T17:34:33Z</time>
      </trkpt>
      <trkpt lat="43.1838" lon="6.60059">
        <ele>-4.47</ele>
        <time>2015-03-13T17:34:43Z</time>
      </trkpt>
      <trkpt lat="43.18384" lon="6.6005">
        <ele>-5.07</ele>
        <time>2015-03-13T17:35:02Z</time>
      </trkpt>
      <trkpt lat="43.18409" lon="6.59966">
        <ele>-5.45</ele>
        <time>2015-03-13T17:35:50Z</time>
      </trkpt>
      <trkpt lat="43.18424" lon="6.59895">
        <ele>-3.63</ele>
        <time>2015-03-13T17:36:30Z</time>
      </trkpt>
      <trkpt lat="43.18426" lon="6.59872">
        <ele>-3.2</ele>
        <time>2015-03-13T17:36:40Z</time>
      </trkpt>
      <trkpt lat="43.18431" lon="6.5982">
        <ele>-1.11</ele>
        <time>2015-03-13T17:37:07Z</time>
      </trkpt>
      <trkpt lat="43.18438" lon="6.59799">
        <ele>-0.59</ele>
        <time>2015-03-13T17:37:17Z</time>
      </trkpt>
      <trkpt lat="43.18446" lon="6.59789">
        <ele>-0.7</ele>
        <time>2015-03-13T17:37:27Z</time>
      </trkpt>
    </trkseg>
  </trk>
</gpx>